Terminal Aerodrome Forecast
Issued by NWS

Home | Current Version | Previous Version | Text Only | Print | Product List | Glossary Off
Versions: 1 2 3 4 5 6 7 8 9 10 11 12 13 14 15 16

000
FTUS43 KBIS 110800 AAB
TAFMOT
TAF AMD
KMOT 110845Z 1109/1206 VRB04KT P6SM VCFG SKC
     FM111500 33011KT P6SM FEW120 SCT150
     FM111800 32011KT P6SM SCT090 BKN120
     FM120100 31007KT P6SM SCT120=

USA.gov is the U.S. government's official web portal to all federal, state and local government web resources and services.